sensor_id;sensor_type;location;lat;lon;timestamp;P1;durP1;ratioP1;P2;durP2;ratioP2
75645;SDS011;64237;52.438;13.240;2023-03-23T00:00:54;2.03;;;1.13;;
75645;SDS011;64237;52.438;13.240;2023-03-23T00:03:20;3.92;;;1.55;;
75645;SDS011;64237;52.438;13.240;2023-03-23T00:05:46;3.80;;;1.40;;
75645;SDS011;64237;52.438;13.240;2023-03-23T00:08:20;3.00;;;1.27;;
75645;SDS011;64237;52.438;13.240;2023-03-23T00:10:49;2.47;;;1.33;;
75645;SDS011;64237;52.438;13.240;2023-03-23T00:13:17;3.53;;;1.23;;
75645;SDS011;64237;52.438;13.240;2023-03-23T00:15:45;3.50;;;1.15;;
75645;SDS011;64237;52.438;13.240;2023-03-23T00:18:10;2.85;;;1.13;;
75645;SDS011;64237;52.438;13.240;2023-03-23T00:20:45;3.63;;;1.67;;
75645;SDS011;64237;52.438;13.240;2023-03-23T00:23:14;4.05;;;1.30;;
75645;SDS011;64237;52.438;13.240;2023-03-23T00:25:44;3.53;;;1.38;;
75645;SDS011;64237;52.438;13.240;2023-03-23T00:28:14;4.05;;;1.60;;
75645;SDS011;64237;52.438;13.240;2023-03-23T00:30:40;4.60;;;1.58;;
75645;SDS011;64237;52.438;13.240;2023-03-23T00:33:07;2.30;;;1.20;;
75645;SDS011;64237;52.438;13.240;2023-03-23T00:35:33;2.80;;;1.15;;
75645;SDS011;64237;52.438;13.240;2023-03-23T00:38:01;3.72;;;1.55;;
75645;SDS011;64237;52.438;13.240;2023-03-23T00:40:27;2.63;;;1.30;;
75645;SDS011;64237;52.438;13.240;2023-03-23T00:42:52;3.92;;;1.23;;
75645;SDS011;64237;52.438;13.240;2023-03-23T00:45:18;3.78;;;1.40;;
75645;SDS011;64237;52.438;13.240;2023-03-23T00:47:43;4.37;;;1.30;;
75645;SDS011;64237;52.438;13.240;2023-03-23T00:50:11;4.05;;;1.50;;
75645;SDS011;64237;52.438;13.240;2023-03-23T00:52:37;4.07;;;1.30;;
75645;SDS011;64237;52.438;13.240;2023-03-23T00:55:03;2.65;;;1.27;;
75645;SDS011;64237;52.438;13.240;2023-03-23T00:57:29;3.60;;;1.50;;
75645;SDS011;64237;52.438;13.240;2023-03-23T00:59:54;1.67;;;1.17;;
75645;SDS011;64237;52.438;13.240;2023-03-23T01:02:19;2.83;;;1.23;;
75645;SDS011;64237;52.438;13.240;2023-03-23T01:04:49;3.35;;;1.38;;
75645;SDS011;64237;52.438;13.240;2023-03-23T01:07:17;2.92;;;1.15;;
75645;SDS011;64237;52.438;13.240;2023-03-23T01:09:46;2.85;;;1.23;;
75645;SDS011;64237;52.438;13.240;2023-03-23T01:12:13;3.20;;;1.30;;
75645;SDS011;64237;52.438;13.240;2023-03-23T01:14:39;3.88;;;1.30;;
75645;SDS011;64237;52.438;13.240;2023-03-23T01:17:05;2.90;;;1.30;;
75645;SDS011;64237;52.438;13.240;2023-03-23T01:19:30;2.73;;;1.33;;
75645;SDS011;64237;52.438;13.240;2023-03-23T01:21:55;3.20;;;1.60;;
75645;SDS011;64237;52.438;13.240;2023-03-23T01:24:21;4.50;;;1.40;;
75645;SDS011;64237;52.438;13.240;2023-03-23T01:26:47;4.38;;;1.70;;
75645;SDS011;64237;52.438;13.240;2023-03-23T01:29:12;3.58;;;1.30;;
75645;SDS011;64237;52.438;13.240;2023-03-23T01:31:38;2.83;;;1.20;;
75645;SDS011;64237;52.438;13.240;2023-03-23T01:34:04;4.47;;;1.30;;
75645;SDS011;64237;52.438;13.240;2023-03-23T01:36:30;2.65;;;1.27;;
75645;SDS011;64237;52.438;13.240;2023-03-23T01:38:58;4.80;;;1.13;;
75645;SDS011;64237;52.438;13.240;2023-03-23T01:41:25;3.78;;;1.40;;
75645;SDS011;64237;52.438;13.240;2023-03-23T01:46:27;4.45;;;1.30;;
75645;SDS011;64237;52.438;13.240;2023-03-23T01:48:54;2.65;;;1.27;;
75645;SDS011;64237;52.438;13.240;2023-03-23T01:51:22;3.78;;;1.25;;
75645;SDS011;64237;52.438;13.240;2023-03-23T01:53:52;4.15;;;1.33;;
75645;SDS011;64237;52.438;13.240;2023-03-23T01:56:22;4.35;;;1.30;;
75645;SDS011;64237;52.438;13.240;2023-03-23T01:58:52;3.10;;;1.40;;
75645;SDS011;64237;52.438;13.240;2023-03-23T02:01:18;2.42;;;1.40;;
75645;SDS011;64237;52.438;13.240;2023-03-23T02:03:46;2.78;;;1.40;;
75645;SDS011;64237;52.438;13.240;2023-03-23T02:06:15;2.03;;;1.10;;
75645;SDS011;64237;52.438;13.240;2023-03-23T02:08:40;3.57;;;1.40;;
75645;SDS011;64237;52.438;13.240;2023-03-23T02:11:12;3.85;;;1.30;;
75645;SDS011;64237;52.438;13.240;2023-03-23T02:13:40;2.88;;;1.40;;
75645;SDS011;64237;52.438;13.240;2023-03-23T02:21:53;2.20;;;1.17;;
75645;SDS011;64237;52.438;13.240;2023-03-23T02:34:49;4.03;;;1.50;;
75645;SDS011;64237;52.438;13.240;2023-03-23T02:37:23;3.17;;;1.30;;
75645;SDS011;64237;52.438;13.240;2023-03-23T02:42:36;3.75;;;1.67;;
75645;SDS011;64237;52.438;13.240;2023-03-23T02:45:05;3.97;;;1.67;;
75645;SDS011;64237;52.438;13.240;2023-03-23T02:47:34;2.47;;;1.30;;
75645;SDS011;64237;52.438;13.240;2023-03-23T02:50:02;4.05;;;1.50;;
75645;SDS011;64237;52.438;13.240;2023-03-23T02:52:30;3.75;;;1.58;;
75645;SDS011;64237;52.438;13.240;2023-03-23T02:54:57;3.58;;;1.50;;
75645;SDS011;64237;52.438;13.240;2023-03-23T02:57:24;4.32;;;1.55;;
75645;SDS011;64237;52.438;13.240;2023-03-23T02:59:51;4.70;;;1.33;;
75645;SDS011;64237;52.438;13.240;2023-03-23T03:02:29;3.85;;;1.63;;
75645;SDS011;64237;52.438;13.240;2023-03-23T03:10:31;4.03;;;1.42;;
75645;SDS011;64237;52.438;13.240;2023-03-23T03:13:09;2.88;;;1.60;;
75645;SDS011;64237;52.438;13.240;2023-03-23T03:15:55;4.80;;;1.85;;
75645;SDS011;64237;52.438;13.240;2023-03-23T03:21:14;3.03;;;1.33;;
75645;SDS011;64237;52.438;13.240;2023-03-23T03:23:45;4.22;;;1.50;;
75645;SDS011;64237;52.438;13.240;2023-03-23T03:26:14;3.67;;;1.50;;
75645;SDS011;64237;52.438;13.240;2023-03-23T03:28:45;2.47;;;1.23;;
75645;SDS011;64237;52.438;13.240;2023-03-23T03:31:13;3.30;;;1.30;;
75645;SDS011;64237;52.438;13.240;2023-03-23T03:33:41;4.50;;;1.50;;
75645;SDS011;64237;52.438;13.240;2023-03-23T03:36:07;4.43;;;1.40;;
75645;SDS011;64237;52.438;13.240;2023-03-23T03:38:41;2.72;;;1.35;;
75645;SDS011;64237;52.438;13.240;2023-03-23T03:41:08;3.38;;;1.20;;
75645;SDS011;64237;52.438;13.240;2023-03-23T03:43:33;2.90;;;1.27;;
75645;SDS011;64237;52.438;13.240;2023-03-23T03:46:00;4.13;;;1.60;;
75645;SDS011;64237;52.438;13.240;2023-03-23T03:48:25;3.72;;;1.38;;
75645;SDS011;64237;52.438;13.240;2023-03-23T03:50:50;3.70;;;1.50;;
75645;SDS011;64237;52.438;13.240;2023-03-23T03:53:17;7.20;;;1.70;;
75645;SDS011;64237;52.438;13.240;2023-03-23T03:55:42;4.15;;;1.55;;
75645;SDS011;64237;52.438;13.240;2023-03-23T03:58:10;4.22;;;1.50;;
75645;SDS011;64237;52.438;13.240;2023-03-23T04:00:35;4.53;;;1.70;;
75645;SDS011;64237;52.438;13.240;2023-03-23T04:03:01;4.00;;;1.65;;
75645;SDS011;64237;52.438;13.240;2023-03-23T04:05:26;2.80;;;1.30;;
75645;SDS011;64237;52.438;13.240;2023-03-23T04:07:53;3.25;;;1.50;;
75645;SDS011;64237;52.438;13.240;2023-03-23T04:10:26;2.78;;;1.48;;
75645;SDS011;64237;52.438;13.240;2023-03-23T04:12:51;2.95;;;1.40;;
75645;SDS011;64237;52.438;13.240;2023-03-23T04:15:17;4.30;;;1.60;;
75645;SDS011;64237;52.438;13.240;2023-03-23T04:17:42;3.53;;;1.55;;
75645;SDS011;64237;52.438;13.240;2023-03-23T04:20:08;2.93;;;1.50;;
75645;SDS011;64237;52.438;13.240;2023-03-23T04:22:43;3.47;;;1.52;;
75645;SDS011;64237;52.438;13.240;2023-03-23T04:25:10;3.90;;;1.67;;
75645;SDS011;64237;52.438;13.240;2023-03-23T04:27:37;3.08;;;1.60;;
75645;SDS011;64237;52.438;13.240;2023-03-23T04:30:08;3.25;;;1.60;;
75645;SDS011;64237;52.438;13.240;2023-03-23T04:32:35;5.68;;;1.80;;
75645;SDS011;64237;52.438;13.240;2023-03-23T04:35:01;3.50;;;1.70;;
75645;SDS011;64237;52.438;13.240;2023-03-23T04:37:27;4.20;;;1.70;;
75645;SDS011;64237;52.438;13.240;2023-03-23T04:39:56;3.72;;;1.70;;
75645;SDS011;64237;52.438;13.240;2023-03-23T04:42:36;4.05;;;1.63;;
75645;SDS011;64237;52.438;13.240;2023-03-23T04:45:02;4.38;;;1.52;;
75645;SDS011;64237;52.438;13.240;2023-03-23T04:47:31;3.92;;;1.67;;
75645;SDS011;64237;52.438;13.240;2023-03-23T04:49:59;4.82;;;1.85;;
75645;SDS011;64237;52.438;13.240;2023-03-23T04:52:25;5.40;;;1.92;;
75645;SDS011;64237;52.438;13.240;2023-03-23T04:54:51;4.13;;;2.00;;
75645;SDS011;64237;52.438;13.240;2023-03-23T04:57:17;3.50;;;1.70;;
75645;SDS011;64237;52.438;13.240;2023-03-23T04:59:42;9.07;;;3.83;;
75645;SDS011;64237;52.438;13.240;2023-03-23T05:02:09;8.23;;;3.20;;
75645;SDS011;64237;52.438;13.240;2023-03-23T05:04:35;5.95;;;2.40;;
75645;SDS011;64237;52.438;13.240;2023-03-23T05:07:02;4.57;;;2.15;;
75645;SDS011;64237;52.438;13.240;2023-03-23T05:09:28;6.82;;;2.40;;
75645;SDS011;64237;52.438;13.240;2023-03-23T05:11:53;5.38;;;1.95;;
75645;SDS011;64237;52.438;13.240;2023-03-23T05:14:19;4.32;;;1.95;;
75645;SDS011;64237;52.438;13.240;2023-03-23T05:16:44;6.68;;;1.98;;
75645;SDS011;64237;52.438;13.240;2023-03-23T05:19:13;3.63;;;1.70;;
75645;SDS011;64237;52.438;13.240;2023-03-23T05:21:39;5.28;;;2.20;;
75645;SDS011;64237;52.438;13.240;2023-03-23T05:24:05;4.87;;;1.93;;
75645;SDS011;64237;52.438;13.240;2023-03-23T05:26:31;4.10;;;1.70;;
75645;SDS011;64237;52.438;13.240;2023-03-23T05:28:57;4.47;;;1.90;;
75645;SDS011;64237;52.438;13.240;2023-03-23T05:31:23;4.93;;;2.03;;
75645;SDS011;64237;52.438;13.240;2023-03-23T05:33:50;4.65;;;1.90;;
75645;SDS011;64237;52.438;13.240;2023-03-23T05:36:16;2.08;;;1.20;;
75645;SDS011;64237;52.438;13.240;2023-03-23T05:38:41;3.90;;;1.63;;
75645;SDS011;64237;52.438;13.240;2023-03-23T05:41:10;3.80;;;1.80;;
75645;SDS011;64237;52.438;13.240;2023-03-23T05:43:36;5.15;;;1.50;;
75645;SDS011;64237;52.438;13.240;2023-03-23T05:46:01;4.38;;;1.40;;
75645;SDS011;64237;52.438;13.240;2023-03-23T05:48:27;3.92;;;1.30;;
75645;SDS011;64237;52.438;13.240;2023-03-23T05:50:53;5.35;;;1.80;;
75645;SDS011;64237;52.438;13.240;2023-03-23T05:53:18;3.50;;;1.73;;
75645;SDS011;64237;52.438;13.240;2023-03-23T05:55:44;4.22;;;1.30;;
75645;SDS011;64237;52.438;13.240;2023-03-23T05:58:09;3.10;;;1.25;;
75645;SDS011;64237;52.438;13.240;2023-03-23T06:00:35;5.53;;;1.38;;
75645;SDS011;64237;52.438;13.240;2023-03-23T06:03:01;5.13;;;1.45;;
75645;SDS011;64237;52.438;13.240;2023-03-23T06:05:27;3.28;;;1.20;;
75645;SDS011;64237;52.438;13.240;2023-03-23T06:07:54;3.30;;;1.20;;
75645;SDS011;64237;52.438;13.240;2023-03-23T06:10:19;2.90;;;1.50;;
75645;SDS011;64237;52.438;13.240;2023-03-23T06:12:46;4.75;;;1.25;;
75645;SDS011;64237;52.438;13.240;2023-03-23T06:15:11;4.17;;;1.33;;
75645;SDS011;64237;52.438;13.240;2023-03-23T06:17:37;3.40;;;1.60;;
75645;SDS011;64237;52.438;13.240;2023-03-23T06:20:03;4.15;;;1.58;;
75645;SDS011;64237;52.438;13.240;2023-03-23T06:22:38;2.55;;;1.20;;
75645;SDS011;64237;52.438;13.240;2023-03-23T06:25:07;3.00;;;1.50;;
75645;SDS011;64237;52.438;13.240;2023-03-23T06:27:36;3.75;;;1.50;;
75645;SDS011;64237;52.438;13.240;2023-03-23T06:30:01;6.00;;;1.48;;
75645;SDS011;64237;52.438;13.240;2023-03-23T06:32:28;4.43;;;1.40;;
75645;SDS011;64237;52.438;13.240;2023-03-23T06:34:55;3.22;;;1.30;;
75645;SDS011;64237;52.438;13.240;2023-03-23T06:37:21;4.75;;;1.45;;
75645;SDS011;64237;52.438;13.240;2023-03-23T06:39:48;4.55;;;1.50;;
75645;SDS011;64237;52.438;13.240;2023-03-23T06:42:13;4.30;;;1.45;;
75645;SDS011;64237;52.438;13.240;2023-03-23T06:44:39;4.85;;;1.90;;
75645;SDS011;64237;52.438;13.240;2023-03-23T06:47:04;4.72;;;1.73;;
75645;SDS011;64237;52.438;13.240;2023-03-23T06:49:30;5.88;;;1.73;;
75645;SDS011;64237;52.438;13.240;2023-03-23T06:51:56;4.95;;;1.73;;
75645;SDS011;64237;52.438;13.240;2023-03-23T06:54:22;4.75;;;1.50;;
75645;SDS011;64237;52.438;13.240;2023-03-23T06:56:48;6.38;;;1.90;;
75645;SDS011;64237;52.438;13.240;2023-03-23T06:59:13;3.17;;;1.30;;
75645;SDS011;64237;52.438;13.240;2023-03-23T07:01:38;7.25;;;1.50;;
75645;SDS011;64237;52.438;13.240;2023-03-23T07:04:04;6.55;;;1.48;;
75645;SDS011;64237;52.438;13.240;2023-03-23T07:06:30;2.58;;;1.33;;
75645;SDS011;64237;52.438;13.240;2023-03-23T07:08:56;4.03;;;1.40;;
75645;SDS011;64237;52.438;13.240;2023-03-23T07:11:21;4.43;;;1.63;;
75645;SDS011;64237;52.438;13.240;2023-03-23T07:13:47;5.90;;;1.70;;
75645;SDS011;64237;52.438;13.240;2023-03-23T07:16:12;7.43;;;2.42;;
75645;SDS011;64237;52.438;13.240;2023-03-23T07:18:37;6.80;;;2.72;;
75645;SDS011;64237;52.438;13.240;2023-03-23T07:21:03;6.05;;;2.05;;
75645;SDS011;64237;52.438;13.240;2023-03-23T07:23:29;8.43;;;1.80;;
75645;SDS011;64237;52.438;13.240;2023-03-23T07:25:55;6.70;;;1.88;;
75645;SDS011;64237;52.438;13.240;2023-03-23T07:28:20;4.47;;;1.58;;
75645;SDS011;64237;52.438;13.240;2023-03-23T07:30:46;7.65;;;2.53;;
75645;SDS011;64237;52.438;13.240;2023-03-23T07:33:11;8.52;;;2.78;;
75645;SDS011;64237;52.438;13.240;2023-03-23T07:35:37;7.05;;;2.78;;
75645;SDS011;64237;52.438;13.240;2023-03-23T07:38:03;5.95;;;2.15;;
75645;SDS011;64237;52.438;13.240;2023-03-23T07:40:29;4.53;;;1.70;;
75645;SDS011;64237;52.438;13.240;2023-03-23T07:42:58;4.15;;;1.45;;
75645;SDS011;64237;52.438;13.240;2023-03-23T07:45:24;4.20;;;1.33;;
75645;SDS011;64237;52.438;13.240;2023-03-23T07:47:50;2.92;;;1.42;;
75645;SDS011;64237;52.438;13.240;2023-03-23T07:50:16;4.97;;;1.60;;
75645;SDS011;64237;52.438;13.240;2023-03-23T07:52:41;4.10;;;1.50;;
75645;SDS011;64237;52.438;13.240;2023-03-23T07:55:07;4.30;;;1.40;;
75645;SDS011;64237;52.438;13.240;2023-03-23T07:57:42;4.22;;;1.67;;
75645;SDS011;64237;52.438;13.240;2023-03-23T08:00:09;5.10;;;1.73;;
75645;SDS011;64237;52.438;13.240;2023-03-23T08:02:37;5.22;;;1.73;;
75645;SDS011;64237;52.438;13.240;2023-03-23T08:05:03;3.38;;;1.65;;
75645;SDS011;64237;52.438;13.240;2023-03-23T08:07:29;3.13;;;1.58;;
75645;SDS011;64237;52.438;13.240;2023-03-23T08:09:54;4.03;;;1.55;;
75645;SDS011;64237;52.438;13.240;2023-03-23T08:12:20;5.10;;;1.50;;
75645;SDS011;64237;52.438;13.240;2023-03-23T08:14:45;4.53;;;1.70;;
75645;SDS011;64237;52.438;13.240;2023-03-23T08:17:13;4.95;;;1.52;;
75645;SDS011;64237;52.438;13.240;2023-03-23T08:19:39;4.32;;;1.73;;
75645;SDS011;64237;52.438;13.240;2023-03-23T08:22:05;3.83;;;1.52;;
75645;SDS011;64237;52.438;13.240;2023-03-23T08:24:31;5.07;;;2.00;;
75645;SDS011;64237;52.438;13.240;2023-03-23T08:26:57;5.75;;;2.13;;
75645;SDS011;64237;52.438;13.240;2023-03-23T08:29:23;6.10;;;1.92;;
75645;SDS011;64237;52.438;13.240;2023-03-23T08:31:49;3.50;;;1.50;;
75645;SDS011;64237;52.438;13.240;2023-03-23T08:34:15;4.78;;;1.55;;
75645;SDS011;64237;52.438;13.240;2023-03-23T08:36:40;5.28;;;1.88;;
75645;SDS011;64237;52.438;13.240;2023-03-23T08:39:09;4.30;;;1.50;;
75645;SDS011;64237;52.438;13.240;2023-03-23T08:41:34;3.75;;;1.70;;
75645;SDS011;64237;52.438;13.240;2023-03-23T08:44:00;4.17;;;1.30;;
75645;SDS011;64237;52.438;13.240;2023-03-23T08:46:25;3.23;;;1.43;;
75645;SDS011;64237;52.438;13.240;2023-03-23T08:48:50;5.13;;;1.60;;
75645;SDS011;64237;52.438;13.240;2023-03-23T08:51:16;4.60;;;1.40;;
75645;SDS011;64237;52.438;13.240;2023-03-23T08:53:41;3.53;;;1.17;;
75645;SDS011;64237;52.438;13.240;2023-03-23T08:56:08;5.63;;;1.65;;
75645;SDS011;64237;52.438;13.240;2023-03-23T08:58:36;3.75;;;1.30;;
75645;SDS011;64237;52.438;13.240;2023-03-23T09:01:02;2.63;;;1.25;;
75645;SDS011;64237;52.438;13.240;2023-03-23T09:03:29;4.32;;;1.60;;
75645;SDS011;64237;52.438;13.240;2023-03-23T09:06:02;6.38;;;1.38;;
75645;SDS011;64237;52.438;13.240;2023-03-23T09:08:29;3.00;;;1.25;;
75645;SDS011;64237;52.438;13.240;2023-03-23T09:10:59;3.28;;;1.20;;
75645;SDS011;64237;52.438;13.240;2023-03-23T09:13:25;4.60;;;1.58;;
75645;SDS011;64237;52.438;13.240;2023-03-23T09:15:51;3.63;;;1.23;;
75645;SDS011;64237;52.438;13.240;2023-03-23T09:18:17;3.25;;;1.50;;
75645;SDS011;64237;52.438;13.240;2023-03-23T09:20:43;4.15;;;1.50;;
75645;SDS011;64237;52.438;13.240;2023-03-23T09:23:09;2.08;;;1.10;;
75645;SDS011;64237;52.438;13.240;2023-03-23T09:25:35;3.33;;;1.50;;
75645;SDS011;64237;52.438;13.240;2023-03-23T09:28:00;3.65;;;1.30;;
75645;SDS011;64237;52.438;13.240;2023-03-23T09:30:29;5.10;;;1.30;;
75645;SDS011;64237;52.438;13.240;2023-03-23T09:32:56;3.15;;;1.35;;
75645;SDS011;64237;52.438;13.240;2023-03-23T09:35:22;2.50;;;1.13;;
75645;SDS011;64237;52.438;13.240;2023-03-23T09:37:49;1.73;;;1.20;;
75645;SDS011;64237;52.438;13.240;2023-03-23T09:40:18;2.80;;;1.30;;
75645;SDS011;64237;52.438;13.240;2023-03-23T09:50:48;3.95;;;1.40;;
75645;SDS011;64237;52.438;13.240;2023-03-23T09:53:22;3.33;;;1.10;;
75645;SDS011;64237;52.438;13.240;2023-03-23T09:56:00;2.33;;;1.05;;
75645;SDS011;64237;52.438;13.240;2023-03-23T09:58:28;2.35;;;1.20;;
75645;SDS011;64237;52.438;13.240;2023-03-23T10:03:29;3.58;;;1.13;;
75645;SDS011;64237;52.438;13.240;2023-03-23T10:05:59;3.33;;;1.00;;
75645;SDS011;64237;52.438;13.240;2023-03-23T10:08:25;4.13;;;1.10;;
75645;SDS011;64237;52.438;13.240;2023-03-23T10:13:35;2.80;;;1.00;;
75645;SDS011;64237;52.438;13.240;2023-03-23T10:16:31;2.55;;;1.00;;
75645;SDS011;64237;52.438;13.240;2023-03-23T10:19:16;2.22;;;1.20;;
75645;SDS011;64237;52.438;13.240;2023-03-23T10:21:49;3.25;;;1.15;;
75645;SDS011;64237;52.438;13.240;2023-03-23T10:24:19;2.28;;;1.00;;
75645;SDS011;64237;52.438;13.240;2023-03-23T10:29:43;2.55;;;0.95;;
75645;SDS011;64237;52.438;13.240;2023-03-23T10:32:17;2.40;;;1.05;;
75645;SDS011;64237;52.438;13.240;2023-03-23T10:37:24;1.70;;;0.80;;
75645;SDS011;64237;52.438;13.240;2023-03-23T10:39:53;3.13;;;1.10;;
75645;SDS011;64237;52.438;13.240;2023-03-23T10:42:22;7.43;;;1.20;;
75645;SDS011;64237;52.438;13.240;2023-03-23T10:44:56;1.17;;;0.82;;
75645;SDS011;64237;52.438;13.240;2023-03-23T10:47:24;2.47;;;0.80;;
75645;SDS011;64237;52.438;13.240;2023-03-23T10:49:54;2.38;;;1.00;;
75645;SDS011;64237;52.438;13.240;2023-03-23T10:52:36;2.15;;;1.00;;
75645;SDS011;64237;52.438;13.240;2023-03-23T10:55:13;1.88;;;1.20;;
75645;SDS011;64237;52.438;13.240;2023-03-23T10:57:41;4.00;;;1.00;;
75645;SDS011;64237;52.438;13.240;2023-03-23T11:02:42;1.75;;;1.02;;
75645;SDS011;64237;52.438;13.240;2023-03-23T11:05:31;2.75;;;1.10;;
75645;SDS011;64237;52.438;13.240;2023-03-23T11:07:57;1.38;;;0.95;;
75645;SDS011;64237;52.438;13.240;2023-03-23T11:10:38;2.92;;;1.05;;
75645;SDS011;64237;52.438;13.240;2023-03-23T11:13:13;2.40;;;1.10;;
75645;SDS011;64237;52.438;13.240;2023-03-23T11:15:41;1.48;;;0.90;;
75645;SDS011;64237;52.438;13.240;2023-03-23T11:20:37;2.05;;;0.90;;
75645;SDS011;64237;52.438;13.240;2023-03-23T11:23:20;3.67;;;1.00;;
75645;SDS011;64237;52.438;13.240;2023-03-23T11:29:47;2.33;;;0.90;;
75645;SDS011;64237;52.438;13.240;2023-03-23T11:42:19;2.22;;;0.95;;
75645;SDS011;64237;52.438;13.240;2023-03-23T11:44:52;3.35;;;1.20;;
75645;SDS011;64237;52.438;13.240;2023-03-23T11:47:35;3.13;;;0.93;;
75645;SDS011;64237;52.438;13.240;2023-03-23T11:52:39;1.75;;;0.85;;
75645;SDS011;64237;52.438;13.240;2023-03-23T11:55:11;2.72;;;1.05;;
75645;SDS011;64237;52.438;13.240;2023-03-23T11:57:40;2.40;;;0.90;;
75645;SDS011;64237;52.438;13.240;2023-03-23T12:00:41;1.25;;;0.85;;
75645;SDS011;64237;52.438;13.240;2023-03-23T12:06:03;4.85;;;0.98;;
75645;SDS011;64237;52.438;13.240;2023-03-23T12:08:38;5.05;;;1.08;;
75645;SDS011;64237;52.438;13.240;2023-03-23T12:24:55;2.05;;;1.10;;
75645;SDS011;64237;52.438;13.240;2023-03-23T12:30:23;2.17;;;1.20;;
75645;SDS011;64237;52.438;13.240;2023-03-23T12:43:52;1.80;;;1.10;;
75645;SDS011;64237;52.438;13.240;2023-03-23T12:51:52;1.90;;;1.00;;
75645;SDS011;64237;52.438;13.240;2023-03-23T12:57:05;3.30;;;1.10;;
75645;SDS011;64237;52.438;13.240;2023-03-23T13:05:27;3.00;;;1.33;;
75645;SDS011;64237;52.438;13.240;2023-03-23T13:11:01;2.40;;;1.10;;
75645;SDS011;64237;52.438;13.240;2023-03-23T13:18:59;4.38;;;1.10;;
75645;SDS011;64237;52.438;13.240;2023-03-23T13:21:34;4.63;;;1.20;;
75645;SDS011;64237;52.438;13.240;2023-03-23T13:24:07;3.08;;;0.98;;
75645;SDS011;64237;52.438;13.240;2023-03-23T13:26:39;1.85;;;0.90;;
75645;SDS011;64237;52.438;13.240;2023-03-23T13:31:39;2.55;;;0.90;;
75645;SDS011;64237;52.438;13.240;2023-03-23T13:34:15;2.65;;;1.00;;
75645;SDS011;64237;52.438;13.240;2023-03-23T13:37:26;3.13;;;1.05;;
75645;SDS011;64237;52.438;13.240;2023-03-23T13:39:48;2.40;;;0.85;;
75645;SDS011;64237;52.438;13.240;2023-03-23T13:42:20;2.28;;;1.00;;
75645;SDS011;64237;52.438;13.240;2023-03-23T13:52:37;3.60;;;1.02;;
75645;SDS011;64237;52.438;13.240;2023-03-23T13:57:53;3.75;;;0.90;;
75645;SDS011;64237;52.438;13.240;2023-03-23T14:10:54;5.20;;;1.55;;
75645;SDS011;64237;52.438;13.240;2023-03-23T14:16:04;4.53;;;1.10;;
75645;SDS011;64237;52.438;13.240;2023-03-23T14:18:39;3.97;;;0.95;;
75645;SDS011;64237;52.438;13.240;2023-03-23T14:21:13;4.25;;;0.90;;
75645;SDS011;64237;52.438;13.240;2023-03-23T14:23:41;4.18;;;1.27;;
75645;SDS011;64237;52.438;13.240;2023-03-23T14:26:10;2.25;;;0.98;;
75645;SDS011;64237;52.438;13.240;2023-03-23T14:28:41;4.63;;;1.63;;
75645;SDS011;64237;52.438;13.240;2023-03-23T14:31:14;2.60;;;0.93;;
75645;SDS011;64237;52.438;13.240;2023-03-23T14:33:44;5.75;;;1.00;;
75645;SDS011;64237;52.438;13.240;2023-03-23T14:36:10;2.05;;;1.10;;
75645;SDS011;64237;52.438;13.240;2023-03-23T14:38:36;3.70;;;1.23;;
75645;SDS011;64237;52.438;13.240;2023-03-23T14:41:04;1.70;;;1.13;;
75645;SDS011;64237;52.438;13.240;2023-03-23T14:43:30;1.60;;;0.90;;
75645;SDS011;64237;52.438;13.240;2023-03-23T14:45:59;3.25;;;1.05;;
75645;SDS011;64237;52.438;13.240;2023-03-23T14:48:27;1.60;;;0.70;;
75645;SDS011;64237;52.438;13.240;2023-03-23T14:50:57;2.83;;;1.10;;
75645;SDS011;64237;52.438;13.240;2023-03-23T14:53:37;3.00;;;0.95;;
75645;SDS011;64237;52.438;13.240;2023-03-23T14:56:11;2.80;;;1.00;;
75645;SDS011;64237;52.438;13.240;2023-03-23T14:58:38;3.53;;;1.00;;
75645;SDS011;64237;52.438;13.240;2023-03-23T15:01:10;3.35;;;0.98;;
75645;SDS011;64237;52.438;13.240;2023-03-23T15:03:40;1.83;;;1.02;;
75645;SDS011;64237;52.438;13.240;2023-03-23T15:06:13;2.08;;;0.93;;
75645;SDS011;64237;52.438;13.240;2023-03-23T15:08:41;3.72;;;0.95;;
75645;SDS011;64237;52.438;13.240;2023-03-23T15:11:20;2.60;;;1.10;;
75645;SDS011;64237;52.438;13.240;2023-03-23T15:13:57;3.38;;;1.00;;
75645;SDS011;64237;52.438;13.240;2023-03-23T15:16:27;4.30;;;1.10;;
75645;SDS011;64237;52.438;13.240;2023-03-23T15:18:55;2.83;;;0.85;;
75645;SDS011;64237;52.438;13.240;2023-03-23T15:21:32;1.95;;;0.88;;
75645;SDS011;64237;52.438;13.240;2023-03-23T15:24:00;1.35;;;0.70;;
75645;SDS011;64237;52.438;13.240;2023-03-23T15:26:33;3.05;;;0.88;;
75645;SDS011;64237;52.438;13.240;2023-03-23T15:31:41;2.65;;;0.73;;
75645;SDS011;64237;52.438;13.240;2023-03-23T15:37:29;2.78;;;0.77;;
75645;SDS011;64237;52.438;13.240;2023-03-23T15:39:56;1.75;;;0.90;;
75645;SDS011;64237;52.438;13.240;2023-03-23T15:42:25;1.08;;;0.77;;
75645;SDS011;64237;52.438;13.240;2023-03-23T15:44:58;3.85;;;0.88;;
75645;SDS011;64237;52.438;13.240;2023-03-23T15:50:14;1.80;;;0.83;;
75645;SDS011;64237;52.438;13.240;2023-03-23T15:52:41;3.35;;;0.95;;
75645;SDS011;64237;52.438;13.240;2023-03-23T15:57:51;2.63;;;0.90;;
75645;SDS011;64237;52.438;13.240;2023-03-23T16:00:18;1.63;;;0.80;;
75645;SDS011;64237;52.438;13.240;2023-03-23T16:02:55;4.05;;;0.98;;
75645;SDS011;64237;52.438;13.240;2023-03-23T16:05:23;4.38;;;1.15;;
75645;SDS011;64237;52.438;13.240;2023-03-23T16:07:49;3.95;;;0.82;;
75645;SDS011;64237;52.438;13.240;2023-03-23T16:10:17;3.05;;;1.05;;
75645;SDS011;64237;52.438;13.240;2023-03-23T16:12:45;1.80;;;0.85;;
75645;SDS011;64237;52.438;13.240;2023-03-23T16:15:11;3.75;;;1.25;;
75645;SDS011;64237;52.438;13.240;2023-03-23T16:17:37;3.72;;;1.10;;
75645;SDS011;64237;52.438;13.240;2023-03-23T16:20:19;2.17;;;0.82;;
75645;SDS011;64237;52.438;13.240;2023-03-23T16:22:46;3.92;;;1.13;;
75645;SDS011;64237;52.438;13.240;2023-03-23T16:25:13;4.10;;;1.05;;
75645;SDS011;64237;52.438;13.240;2023-03-23T16:27:39;3.97;;;0.93;;
75645;SDS011;64237;52.438;13.240;2023-03-23T16:30:16;3.30;;;0.98;;
75645;SDS011;64237;52.438;13.240;2023-03-23T16:35:18;2.70;;;0.80;;
75645;SDS011;64237;52.438;13.240;2023-03-23T16:37:45;2.60;;;0.77;;
75645;SDS011;64237;52.438;13.240;2023-03-23T16:40:12;2.30;;;0.90;;
75645;SDS011;64237;52.438;13.240;2023-03-23T16:42:38;2.05;;;0.90;;
75645;SDS011;64237;52.438;13.240;2023-03-23T16:45:04;1.63;;;0.70;;
75645;SDS011;64237;52.438;13.240;2023-03-23T16:47:31;3.90;;;1.15;;
75645;SDS011;64237;52.438;13.240;2023-03-23T16:49:56;2.40;;;0.98;;
75645;SDS011;64237;52.438;13.240;2023-03-23T16:52:21;2.03;;;0.68;;
75645;SDS011;64237;52.438;13.240;2023-03-23T16:54:47;3.25;;;1.08;;
75645;SDS011;64237;52.438;13.240;2023-03-23T16:57:12;1.20;;;0.85;;
75645;SDS011;64237;52.438;13.240;2023-03-23T16:59:37;1.75;;;0.80;;
75645;SDS011;64237;52.438;13.240;2023-03-23T17:02:03;1.23;;;0.80;;
75645;SDS011;64237;52.438;13.240;2023-03-23T17:04:29;6.32;;;1.10;;
75645;SDS011;64237;52.438;13.240;2023-03-23T17:06:55;4.00;;;0.98;;
75645;SDS011;64237;52.438;13.240;2023-03-23T17:09:23;4.38;;;1.00;;
75645;SDS011;64237;52.438;13.240;2023-03-23T17:11:49;3.60;;;0.93;;
75645;SDS011;64237;52.438;13.240;2023-03-23T17:14:15;3.35;;;1.00;;
75645;SDS011;64237;52.438;13.240;2023-03-23T17:16:40;2.97;;;0.90;;
75645;SDS011;64237;52.438;13.240;2023-03-23T17:19:05;5.43;;;1.10;;
75645;SDS011;64237;52.438;13.240;2023-03-23T17:21:31;4.32;;;1.75;;
75645;SDS011;64237;52.438;13.240;2023-03-23T17:23:56;2.88;;;1.00;;